Time;durP1;ratioP1;P1;durP2;ratioP2;P2;SDS_P1;SDS_P2;PMS_P1;PMS_P2;Temp;Humidity;BMP_temperature;BMP_pressure;BME280_temperature;BME280_humidity;BME280_pressure;Samples;Min_cycle;Max_cycle;Signal;HPM_P1;HPM_P2
2021/09/21 00:02:17;;;;;;;24.95;13.95;;;;;;;11.52;100.00;98592.59;5001143;28;20054;-79
2021/09/21 00:04:43;;;;;;;24.27;14.30;;;;;;;11.71;100.00;98593.41;5009285;28;20031;-81
2021/09/21 00:07:10;;;;;;;21.33;13.68;;;;;;;11.69;100.00;98586.66;4987992;28;20047;-78
2021/09/21 00:09:36;;;;;;;24.13;13.35;;;;;;;11.66;100.00;98593.47;4999741;28;20046;-76
2021/09/21 00:12:03;;;;;;;21.88;13.10;;;;;;;11.77;100.00;98594.91;4981800;28;20258;-78
2021/09/21 00:14:31;;;;;;;20.35;13.80;;;;;;;11.79;100.00;98600.03;4995733;28;20034;-77
2021/09/21 00:17:02;;;;;;;23.42;14.57;;;;;;;11.80;100.00;98593.50;4995342;28;20499;-78
2021/09/21 00:19:32;;;;;;;19.52;13.80;;;;;;;11.61;100.00;98590.03;4995077;28;20046;-77
2021/09/21 00:22:00;;;;;;;20.92;13.38;;;;;;;11.74;100.00;98587.34;4996162;28;20518;-78
2021/09/21 00:24:26;;;;;;;21.88;13.70;;;;;;;11.73;100.00;98599.31;4996499;28;20183;-79
2021/09/21 00:26:53;;;;;;;22.48;13.13;;;;;;;11.85;100.00;98604.25;4979792;28;20042;-79
2021/09/21 00:29:20;;;;;;;23.13;13.93;;;;;;;11.70;100.00;98590.97;4978712;28;20046;-77
2021/09/21 00:31:55;;;;;;;22.10;12.55;;;;;;;11.77;100.00;98597.59;4994942;28;20049;-79
2021/09/21 00:34:48;;;;;;;22.15;13.48;;;;;;;11.81;100.00;98597.81;4994638;28;20046;-77
2021/09/21 00:37:15;;;;;;;21.88;13.43;;;;;;;11.85;100.00;98596.91;4994362;28;20297;-77
2021/09/21 00:39:46;;;;;;;22.10;13.70;;;;;;;11.73;100.00;98596.59;4994695;28;20041;-79
2021/09/21 00:42:14;;;;;;;25.70;14.23;;;;;;;11.66;100.00;98603.50;4994438;28;20136;-80
2021/09/21 00:44:42;;;;;;;22.77;14.43;;;;;;;11.75;100.00;98596.28;4993541;28;20043;-79
2021/09/21 00:47:10;;;;;;;24.23;14.52;;;;;;;11.78;100.00;98599.22;4976961;28;20241;-79
2021/09/21 00:49:37;;;;;;;24.50;15.10;;;;;;;11.81;100.00;98600.53;4994469;28;20054;-79
2021/09/21 00:52:04;;;;;;;24.67;13.77;;;;;;;11.78;100.00;98591.09;4997595;28;20054;-79
2021/09/21 00:54:31;;;;;;;22.95;14.18;;;;;;;11.82;100.00;98592.09;4997413;28;20038;-79
2021/09/21 00:56:58;;;;;;;23.20;15.23;;;;;;;11.63;100.00;98591.34;4979741;28;20039;-79
2021/09/21 00:59:24;;;;;;;22.83;15.25;;;;;;;11.71;100.00;98587.16;4996817;28;20114;-80
2021/09/21 01:01:51;;;;;;;25.20;15.30;;;;;;;11.72;100.00;98591.47;4979439;28;20109;-80
2021/09/21 01:04:18;;;;;;;27.70;15.75;;;;;;;11.65;100.00;98591.84;4994884;28;20136;-79
2021/09/21 01:06:44;;;;;;;26.58;15.95;;;;;;;11.75;100.00;98588.97;4996032;28;20046;-77
2021/09/21 01:09:18;;;;;;;24.10;15.68;;;;;;;11.68;100.00;98582.28;4995180;28;20510;-80
2021/09/21 01:11:47;;;;;;;23.27;13.65;;;;;;;11.81;100.00;98586.97;4977469;28;20060;-78
2021/09/21 01:14:14;;;;;;;24.17;14.70;;;;;;;11.69;100.00;98576.59;4995401;28;20047;-79
2021/09/21 01:16:41;;;;;;;24.77;13.90;;;;;;;11.76;100.00;98578.94;4995533;28;20691;-78
2021/09/21 01:19:11;;;;;;;24.13;14.57;;;;;;;11.79;100.00;98586.47;4994465;28;20486;-79
2021/09/21 01:21:38;;;;;;;23.30;13.98;;;;;;;11.85;100.00;98593.41;4963423;28;20061;-80
2021/09/21 01:24:05;;;;;;;23.75;14.55;;;;;;;11.86;100.00;98584.16;4980614;28;20050;-80
2021/09/21 01:26:32;;;;;;;25.13;15.52;;;;;;;11.89;100.00;98591.72;4980951;28;20260;-80
2021/09/21 01:28:58;;;;;;;22.33;15.00;;;;;;;11.76;100.00;98596.00;4978373;28;20049;-81
2021/09/21 01:31:25;;;;;;;23.45;14.75;;;;;;;11.72;100.00;98597.69;4999242;28;20054;-80
2021/09/21 01:33:53;;;;;;;26.05;14.65;;;;;;;11.82;100.00;98597.50;4982723;28;20057;-80
2021/09/21 01:36:22;;;;;;;26.40;15.90;;;;;;;11.74;100.00;98606.34;4983630;28;20052;-80
2021/09/21 01:38:49;;;;;;;26.80;15.50;;;;;;;11.82;100.00;98594.00;4997973;28;20419;-79
2021/09/21 01:41:16;;;;;;;23.17;15.70;;;;;;;11.81;100.00;98593.22;4965008;28;20046;-80
2021/09/21 01:43:45;;;;;;;25.77;15.55;;;;;;;11.81;100.00;98592.41;4993955;28;20053;-81
2021/09/21 01:46:14;;;;;;;23.25;15.50;;;;;;;11.76;100.00;98601.44;4972818;28;20042;-78
2021/09/21 01:48:41;;;;;;;25.88;15.25;;;;;;;11.83;100.00;98601.84;4964454;28;20452;-81
2021/09/21 01:51:12;;;;;;;28.45;14.75;;;;;;;11.73;100.00;98609.34;4940104;29;20043;-80
2021/09/21 01:58:54;;;;;;;24.20;15.63;;;;;;;11.56;100.00;98619.94;4960212;29;20591;-79
2021/09/21 02:01:26;;;;;;;23.02;15.30;;;;;;;11.58;100.00;98612.31;4939585;29;20230;-79
2021/09/21 02:03:57;;;;;;;23.73;15.15;;;;;;;11.51;100.00;98592.91;4954093;29;20039;-79
2021/09/21 02:06:40;;;;;;;26.38;15.30;;;;;;;11.59;100.00;98619.31;4957480;29;20118;-80
2021/09/21 02:09:09;;;;;;;23.70;15.00;;;;;;;11.66;100.00;98622.47;4939194;29;20051;-78
2021/09/21 02:11:37;;;;;;;23.60;16.02;;;;;;;11.74;100.00;98619.13;4939225;29;20047;-77
2021/09/21 02:14:07;;;;;;;30.58;16.17;;;;;;;11.75;100.00;98618.00;4920369;29;20162;-81
2021/09/21 02:16:34;;;;;;;24.05;14.75;;;;;;;11.74;100.00;98619.13;4954654;29;20119;-78
2021/09/21 02:19:01;;;;;;;22.67;15.50;;;;;;;11.76;100.00;98611.47;4953406;29;20066;-80
2021/09/21 02:21:27;;;;;;;31.05;15.30;;;;;;;11.70;100.00;98608.06;4939945;29;20126;-79
2021/09/21 02:23:56;;;;;;;23.98;15.27;;;;;;;11.71;100.00;98606.16;4936064;29;20082;-79
2021/09/21 02:26:23;;;;;;;25.00;15.65;;;;;;;11.60;100.00;98610.91;4953932;29;20416;-79
2021/09/21 02:28:50;;;;;;;24.70;14.95;;;;;;;11.54;100.00;98605.84;4958228;29;20091;-79
2021/09/21 02:31:16;;;;;;;27.15;16.10;;;;;;;11.45;100.00;98613.88;4954878;29;20098;-80
2021/09/21 02:33:43;;;;;;;24.42;15.80;;;;;;;11.51;100.00;98604.53;4936989;29;20106;-79
2021/09/21 02:36:10;;;;;;;27.05;15.63;;;;;;;11.66;100.00;98617.88;4937642;29;20048;-77
2021/09/21 02:38:37;;;;;;;27.75;15.95;;;;;;;11.65;100.00;98608.09;4955309;29;20036;-81
2021/09/21 02:41:04;;;;;;;27.70;15.80;;;;;;;11.68;100.00;98612.13;4956703;28;20047;-80
2021/09/21 02:43:32;;;;;;;26.33;15.77;;;;;;;11.71;100.00;98606.97;4938446;29;20198;-79
2021/09/21 02:46:01;;;;;;;27.25;15.35;;;;;;;11.74;100.00;98609.06;4953095;29;20167;-79
2021/09/21 02:48:32;;;;;;;25.75;14.68;;;;;;;11.77;100.00;98607.66;4927341;29;20079;-81
2021/09/21 02:50:59;;;;;;;24.27;15.90;;;;;;;11.70;100.00;98616.19;4939770;29;20535;-80
2021/09/21 02:53:26;;;;;;;24.50;15.20;;;;;;;11.74;100.00;98616.41;4959839;29;20051;-79
2021/09/21 02:55:53;;;;;;;24.05;14.52;;;;;;;11.77;100.00;98615.78;4940350;29;20051;-79
2021/09/21 02:58:20;;;;;;;22.27;15.48;;;;;;;11.72;100.00;98605.84;4939690;29;20050;-81
2021/09/21 03:00:50;;;;;;;20.10;14.25;;;;;;;11.83;100.00;98631.69;4960100;28;20054;-81
2021/09/21 03:03:17;;;;;;;26.35;15.32;;;;;;;11.82;100.00;98615.69;4957498;28;20468;-80
2021/09/21 03:05:52;;;;;;;27.02;16.23;;;;;;;11.94;100.00;98624.19;4960819;29;20054;-79
2021/09/21 03:08:20;;;;;;;31.83;15.57;;;;;;;11.96;100.00;98627.38;4939838;29;20051;-79
2021/09/21 03:18:51;;;;;;;27.38;15.60;;;;;;;11.98;100.00;98633.31;4939638;29;20043;-77
2021/09/21 03:21:17;;;;;;;25.92;15.27;;;;;;;11.87;100.00;98631.91;4957528;28;20039;-79
2021/09/21 03:23:44;;;;;;;28.55;15.32;;;;;;;11.92;100.00;98641.88;4958303;28;20051;-78
2021/09/21 03:26:11;;;;;;;25.02;15.75;;;;;;;11.94;100.00;98643.19;4954530;28;20044;-78
2021/09/21 03:28:37;;;;;;;22.88;14.60;;;;;;;11.94;100.00;98636.94;4937510;29;20416;-79
2021/09/21 03:31:04;;;;;;;26.98;14.82;;;;;;;11.98;100.00;98646.88;4936204;29;20051;-79
2021/09/21 03:33:31;;;;;;;26.33;14.57;;;;;;;11.97;100.00;98652.63;4954567;29;20054;-78
2021/09/21 03:35:57;;;;;;;23.67;14.30;;;;;;;12.03;100.00;98659.56;4953839;29;20413;-78
2021/09/21 03:38:24;;;;;;;24.58;15.18;;;;;;;12.07;100.00;98655.97;4954191;29;20468;-80
2021/09/21 03:40:50;;;;;;;22.38;14.38;;;;;;;12.06;100.00;98662.50;4937507;29;20040;-79
2021/09/21 03:43:17;;;;;;;21.60;15.15;;;;;;;11.93;100.00;98655.13;4955867;29;20051;-78
2021/09/21 03:45:44;;;;;;;26.38;15.55;;;;;;;11.96;100.00;98657.25;4938291;29;20512;-79
2021/09/21 03:48:10;;;;;;;26.92;14.85;;;;;;;12.00;100.00;98660.19;4962068;28;20069;-79
2021/09/21 03:50:37;;;;;;;26.80;15.27;;;;;;;12.13;100.00;98672.97;4973782;28;20054;-78
2021/09/21 03:53:04;;;;;;;25.90;16.10;;;;;;;12.13;100.00;98679.19;4975675;28;20039;-77
2021/09/21 03:55:31;;;;;;;27.60;15.63;;;;;;;12.13;100.00;98675.69;4975090;28;20070;-80
2021/09/21 03:57:57;;;;;;;25.27;14.90;;;;;;;11.87;100.00;98673.41;4956965;28;20043;-78
2021/09/21 04:00:24;;;;;;;21.95;14.30;;;;;;;11.70;100.00;98675.06;4988446;23;20033;-81
2021/09/21 04:02:51;;;;;;;25.30;15.00;;;;;;;11.61;100.00;98676.81;4957965;28;20050;-86
2021/09/21 04:05:18;;;;;;;22.63;14.13;;;;;;;11.64;100.00;98677.00;4960646;28;20054;-81
2021/09/21 04:07:48;;;;;;;22.00;15.00;;;;;;;11.71;100.00;98676.69;4924257;29;20059;-81
2021/09/21 04:10:15;;;;;;;27.58;16.40;;;;;;;11.66;100.00;98679.44;4955967;28;20131;-82
2021/09/21 04:12:42;;;;;;;28.05;15.18;;;;;;;11.71;100.00;98676.69;4955683;28;20051;-82
2021/09/21 04:15:09;;;;;;;23.42;15.10;;;;;;;11.72;100.00;98664.69;4925706;29;20071;-82
2021/09/21 04:17:39;;;;;;;24.75;16.08;;;;;;;11.70;100.00;98675.06;5003831;23;20060;-79
2021/09/21 04:20:06;;;;;;;28.38;14.82;;;;;;;11.88;100.00;98682.34;5031833;28;20048;-78
2021/09/21 04:22:33;;;;;;;25.00;15.07;;;;;;;11.84;100.00;98679.44;5012487;28;20438;-79
2021/09/21 04:25:00;;;;;;;23.55;15.43;;;;;;;11.81;100.00;98690.06;4994525;28;20041;-78
2021/09/21 04:27:27;;;;;;;24.73;15.43;;;;;;;11.92;100.00;98679.84;5012474;28;20041;-78
2021/09/21 04:29:59;;;;;;;25.65;15.88;;;;;;;12.00;100.00;98698.94;4997944;23;20050;-80
2021/09/21 04:32:26;;;;;;;26.00;15.30;;;;;;;11.91;100.00;98695.31;4964225;28;20058;-81
2021/09/21 04:34:54;;;;;;;27.15;15.90;;;;;;;12.01;100.00;98697.03;4964889;28;20050;-81
2021/09/21 04:37:21;;;;;;;27.23;15.85;;;;;;;12.01;100.00;98688.91;4980544;28;20054;-80
2021/09/21 04:39:50;;;;;;;26.85;15.98;;;;;;;11.91;100.00;98695.31;4996202;28;20130;-80
2021/09/21 04:42:21;;;;;;;25.65;15.30;;;;;;;11.71;100.00;98695.66;4998666;28;20077;-82
2021/09/21 04:44:48;;;;;;;26.02;15.85;;;;;;;11.59;100.00;98689.84;4978262;28;20063;-83
2021/09/21 04:47:15;;;;;;;28.77;16.10;;;;;;;11.64;100.00;98696.00;4978778;28;20124;-83
2021/09/21 04:49:42;;;;;;;26.80;15.88;;;;;;;11.60;100.00;98694.19;4998501;28;20038;-84
2021/09/21 04:52:08;;;;;;;23.92;14.98;;;;;;;11.70;100.00;98691.34;4994445;28;20049;-83
2021/09/21 04:54:35;;;;;;;32.58;17.20;;;;;;;11.56;100.00;98693.16;5013575;28;20050;-84
2021/09/21 04:57:01;;;;;;;27.17;16.05;;;;;;;11.53;100.00;98686.44;4996577;28;20053;-80
2021/09/21 04:59:31;;;;;;;23.95;15.38;;;;;;;11.64;100.00;98690.56;4984671;28;20084;-81
2021/09/21 05:01:57;;;;;;;29.67;16.15;;;;;;;11.66;100.00;98699.25;4998332;28;20054;-81
2021/09/21 05:04:25;;;;;;;38.42;16.45;;;;;;;11.67;100.00;98703.53;5015667;28;20045;-81
2021/09/21 05:06:51;;;;;;;24.70;15.30;;;;;;;11.68;100.00;98707.06;5009822;28;20118;-81
2021/09/21 05:09:18;;;;;;;26.70;15.45;;;;;;;11.46;100.00;98706.88;5016734;28;20050;-81
2021/09/21 05:11:45;;;;;;;28.42;15.05;;;;;;;11.54;100.00;98704.28;5015602;28;20060;-82
2021/09/21 05:14:15;;;;;;;21.75;14.52;;;;;;;11.61;100.00;98715.59;5017103;28;20073;-80
2021/09/21 05:16:42;;;;;;;24.20;14.70;;;;;;;11.70;100.00;98723.88;4998046;28;20046;-82
2021/09/21 05:19:11;;;;;;;28.48;14.98;;;;;;;11.79;100.00;98716.69;5014664;28;20052;-81
2021/09/21 05:21:39;;;;;;;28.02;14.35;;;;;;;11.71;100.00;98711.94;5014887;28;20439;-82
2021/09/21 05:24:06;;;;;;;24.83;14.23;;;;;;;11.74;100.00;98706.72;4997833;28;20045;-82
2021/09/21 05:26:32;;;;;;;27.15;15.20;;;;;;;11.93;100.00;98711.28;4988810;28;20062;-82
2021/09/21 05:28:59;;;;;;;23.20;14.85;;;;;;;11.84;100.00;98713.91;5013127;28;20038;-83
2021/09/21 05:31:26;;;;;;;23.33;14.48;;;;;;;11.68;100.00;98709.78;5015119;28;20137;-83
2021/09/21 05:33:53;;;;;;;28.77;14.85;;;;;;;11.69;100.00;98716.88;5016428;28;20073;-84
2021/09/21 05:36:20;;;;;;;30.50;15.65;;;;;;;11.75;100.00;98724.63;5015560;28;20076;-83
2021/09/21 05:38:47;;;;;;;28.42;15.63;;;;;;;11.78;100.00;98715.88;4981330;28;20080;-82
2021/09/21 05:41:15;;;;;;;29.02;15.10;;;;;;;11.85;100.00;98713.59;4994818;28;20053;-82
2021/09/21 05:43:42;;;;;;;24.90;15.38;;;;;;;11.98;100.00;98708.50;5014063;28;20052;-83
2021/09/21 05:46:09;;;;;;;24.60;14.85;;;;;;;12.06;100.00;98724.91;5014084;28;20046;-81
2021/09/21 05:48:36;;;;;;;25.67;14.27;;;;;;;12.05;100.00;98717.09;4995705;28;20069;-82
2021/09/21 05:51:03;;;;;;;24.55;14.00;;;;;;;12.17;100.00;98718.22;5013696;28;20067;-83
2021/09/21 05:53:29;;;;;;;23.50;15.18;;;;;;;11.87;100.00;98730.38;5014039;28;20117;-82
2021/09/21 05:55:56;;;;;;;27.73;14.85;;;;;;;12.04;100.00;98737.16;4979040;28;20140;-82
2021/09/21 05:58:22;;;;;;;26.85;15.43;;;;;;;12.22;100.00;98747.19;5012886;28;20152;-83
2021/09/21 06:00:59;;;;;;;24.67;14.35;;;;;;;12.22;100.00;98748.00;4994293;28;20108;-83
2021/09/21 06:03:26;;;;;;;32.03;15.35;;;;;;;12.28;100.00;98749.53;4990669;28;20086;-81
2021/09/21 06:05:53;;;;;;;24.13;14.38;;;;;;;12.35;100.00;98755.34;4997591;28;20066;-82
2021/09/21 06:08:20;;;;;;;22.80;14.00;;;;;;;12.06;100.00;98764.81;5015654;28;20793;-81
2021/09/21 06:10:47;;;;;;;23.25;14.02;;;;;;;12.04;100.00;98761.59;4996731;28;20473;-80
2021/09/21 06:13:13;;;;;;;26.50;14.25;;;;;;;12.27;100.00;98758.75;4996379;28;20038;-82
2021/09/21 06:15:40;;;;;;;29.10;14.77;;;;;;;12.30;100.00;98763.59;4990502;28;20134;-82
2021/09/21 06:18:07;;;;;;;24.23;14.85;;;;;;;12.37;100.00;98765.91;4994004;28;20110;-83
2021/09/21 06:20:34;;;;;;;28.90;15.05;;;;;;;12.55;100.00;98775.09;4996288;28;20052;-83
2021/09/21 06:23:00;;;;;;;24.85;14.60;;;;;;;12.43;100.00;98768.25;5014974;28;20464;-82
2021/09/21 06:25:27;;;;;;;26.80;15.45;;;;;;;12.65;100.00;98778.44;5012623;28;20073;-82
2021/09/21 06:27:53;;;;;;;35.42;15.38;;;;;;;12.49;100.00;98779.84;4992278;28;20569;-83
2021/09/21 06:30:20;;;;;;;24.08;15.73;;;;;;;12.32;100.00;98779.56;5011487;28;20053;-83
2021/09/21 06:32:47;;;;;;;31.17;15.80;;;;;;;12.14;100.00;98772.28;5012797;28;20057;-81
2021/09/21 06:35:14;;;;;;;29.75;16.63;;;;;;;12.20;100.00;98785.50;5013619;28;20383;-83
2021/09/21 06:37:43;;;;;;;30.58;16.95;;;;;;;12.33;100.00;98787.44;5016915;28;20034;-82
2021/09/21 06:40:10;;;;;;;30.92;16.85;;;;;;;12.19;100.00;98793.91;5015021;28;20042;-82
2021/09/21 06:42:41;;;;;;;28.65;16.38;;;;;;;12.39;100.00;98799.00;4997717;28;20061;-81
2021/09/21 06:45:11;;;;;;;30.13;17.40;;;;;;;12.40;100.00;98804.16;5016438;28;20041;-81
2021/09/21 06:47:38;;;;;;;28.00;16.23;;;;;;;12.29;100.00;98794.56;5016121;28;20096;-82
2021/09/21 06:50:05;;;;;;;31.52;16.92;;;;;;;12.24;100.00;98799.25;4996272;28;20411;-81
2021/09/21 06:52:32;;;;;;;28.40;17.15;;;;;;;12.18;100.00;98795.03;4971938;28;20050;-80
2021/09/21 06:54:59;;;;;;;28.25;17.10;;;;;;;12.32;100.00;98812.97;4997235;28;20553;-81
2021/09/21 06:57:25;;;;;;;25.33;16.00;;;;;;;12.32;100.00;98802.13;4994350;28;20072;-81
2021/09/21 06:59:53;;;;;;;29.85;15.45;;;;;;;12.53;100.00;98799.84;4994510;28;20057;-82
2021/09/21 07:02:19;;;;;;;22.67;14.85;;;;;;;12.48;100.00;98806.19;5012421;28;20046;-81
2021/09/21 07:04:46;;;;;;;26.23;15.27;;;;;;;12.69;100.00;98814.78;4980328;28;20050;-82
2021/09/21 07:07:13;;;;;;;24.77;15.70;;;;;;;12.73;100.00;98806.81;5013451;28;20140;-80
2021/09/21 07:09:39;;;;;;;22.67;13.82;;;;;;;12.78;100.00;98799.38;5014395;28;20072;-81
2021/09/21 07:12:06;;;;;;;21.55;14.63;;;;;;;13.04;100.00;98803.22;4978931;28;20085;-81
2021/09/21 07:14:34;;;;;;;20.95;13.65;;;;;;;13.24;100.00;98803.97;4992576;28;20045;-82
2021/09/21 07:17:01;;;;;;;19.40;12.27;;;;;;;13.21;100.00;98799.94;5010766;28;20526;-81
2021/09/21 07:19:31;;;;;;;20.85;12.45;;;;;;;13.16;100.00;98800.06;4999073;28;20125;-80
2021/09/21 07:21:57;;;;;;;20.75;12.27;;;;;;;13.25;100.00;98803.66;4999504;28;20054;-81
2021/09/21 07:24:24;;;;;;;23.25;14.70;;;;;;;13.39;100.00;98804.47;5016776;28;20034;-82
2021/09/21 07:26:52;;;;;;;18.77;11.65;;;;;;;13.30;100.00;98795.38;5016897;28;20221;-82
2021/09/21 07:29:19;;;;;;;23.58;13.18;;;;;;;13.70;100.00;98797.22;4997400;28;20074;-81
2021/09/21 07:31:45;;;;;;;26.00;12.73;;;;;;;13.60;100.00;98811.06;4993524;28;20101;-83
2021/09/21 07:34:12;;;;;;;20.10;12.93;;;;;;;13.47;100.00;98816.53;5010623;28;20355;-82
2021/09/21 07:36:44;;;;;;;23.40;12.80;;;;;;;13.46;100.00;98825.78;5016244;28;20052;-81
2021/09/21 07:39:11;;;;;;;18.88;11.98;;;;;;;13.71;100.00;98814.34;5015448;28;20038;-81
2021/09/21 07:41:38;;;;;;;20.73;11.73;;;;;;;13.78;100.00;98827.56;4981137;28;20148;-82
2021/09/21 07:44:05;;;;;;;18.75;12.25;;;;;;;14.03;100.00;98816.91;5014456;28;20054;-82
2021/09/21 07:46:32;;;;;;;16.08;11.02;;;;;;;14.36;100.00;98820.19;5005945;28;20053;-83
2021/09/21 07:48:59;;;;;;;19.77;10.45;;;;;;;14.85;100.00;98830.13;5014572;28;20077;-81
2021/09/21 07:51:26;;;;;;;17.98;10.50;;;;;;;14.77;100.00;98826.22;5014561;28;20076;-81
2021/09/21 07:53:52;;;;;;;15.25;9.82;;;;;;;14.88;100.00;98832.22;4995621;28;20531;-83
2021/09/21 07:56:19;;;;;;;14.93;9.70;;;;;;;14.65;100.00;98841.56;4996809;28;20042;-82
2021/09/21 07:58:48;;;;;;;15.60;9.00;;;;;;;15.02;100.00;98853.94;4994939;28;20045;-83
2021/09/21 08:01:15;;;;;;;17.10;9.20;;;;;;;14.72;100.00;98847.34;4993962;28;20041;-81
2021/09/21 08:03:43;;;;;;;14.63;8.25;;;;;;;14.92;100.00;98850.34;5009393;28;20108;-80
2021/09/21 08:06:10;;;;;;;13.57;7.88;;;;;;;14.92;100.00;98850.34;4992128;28;20137;-82
2021/09/21 08:08:39;;;;;;;19.42;8.75;;;;;;;15.25;100.00;98852.75;5009264;28;20109;-83
2021/09/21 08:11:08;;;;;;;14.57;8.50;;;;;;;15.24;100.00;98865.59;5009087;28;20113;-82
2021/09/21 08:13:35;;;;;;;15.57;8.73;;;;;;;15.52;100.00;98853.34;5008975;28;20046;-82
2021/09/21 08:16:02;;;;;;;15.75;9.15;;;;;;;15.23;100.00;98858.50;5011109;28;20163;-82
2021/09/21 08:18:28;;;;;;;16.83;9.57;;;;;;;15.42;100.00;98861.00;5009923;28;20046;-82
2021/09/21 08:20:55;;;;;;;14.82;8.40;;;;;;;15.49;100.00;98861.38;4992333;28;20038;-82
2021/09/21 08:23:22;;;;;;;16.67;8.73;;;;;;;15.60;100.00;98862.69;5010020;28;20210;-81
2021/09/21 08:25:49;;;;;;;16.10;8.98;;;;;;;15.75;100.00;98862.22;4993226;28;20100;-81
2021/09/21 08:28:15;;;;;;;16.45;8.25;;;;;;;15.77;100.00;98870.13;4980792;28;20144;-84
2021/09/21 08:30:42;;;;;;;14.60;8.00;;;;;;;15.35;100.00;98877.84;4995370;28;20042;-82
2021/09/21 08:33:09;;;;;;;14.93;8.80;;;;;;;15.45;100.00;98874.84;4996083;28;20061;-82
2021/09/21 08:35:36;;;;;;;14.40;8.57;;;;;;;15.63;100.00;98883.91;5013398;28;20045;-83
2021/09/21 08:38:03;;;;;;;13.93;9.07;;;;;;;15.49;100.00;98881.28;4976820;28;20053;-81
2021/09/21 08:40:30;;;;;;;17.92;9.32;;;;;;;15.45;100.00;98891.22;4975808;28;20093;-82
2021/09/21 08:42:58;;;;;;;16.98;8.73;;;;;;;15.45;100.00;98893.13;4992724;28;20054;-81
2021/09/21 08:45:27;;;;;;;16.30;9.43;;;;;;;15.25;100.00;98899.16;5003740;28;20104;-81
2021/09/21 08:47:54;;;;;;;16.65;9.80;;;;;;;15.62;100.00;98895.13;5010494;28;20048;-82
2021/09/21 08:50:22;;;;;;;17.13;8.45;;;;;;;15.60;100.00;98887.25;5010379;28;20044;-81
2021/09/21 08:52:49;;;;;;;12.85;7.15;;;;;;;15.81;100.00;98891.00;5009898;28;20052;-82
2021/09/21 08:55:16;;;;;;;16.27;7.30;;;;;;;15.92;100.00;98894.25;4993362;28;20068;-82
2021/09/21 08:57:44;;;;;;;13.38;7.93;;;;;;;15.87;100.00;98892.44;4994497;28;20030;-82
2021/09/21 09:00:19;;;;;;;13.38;8.15;;;;;;;15.95;100.00;98897.13;4977993;28;20045;-83
2021/09/21 09:02:45;;;;;;;15.88;8.25;;;;;;;15.95;100.00;98888.94;4973094;28;20042;-82
2021/09/21 09:05:12;;;;;;;13.15;7.78;;;;;;;15.59;100.00;98893.81;5012691;28;20053;-82
2021/09/21 09:07:54;;;;;;;11.80;7.97;;;;;;;15.98;100.00;98899.22;4979049;28;20057;-81
2021/09/21 09:10:22;;;;;;;17.40;8.93;;;;;;;15.75;100.00;98908.66;4975130;28;20490;-82
2021/09/21 09:12:50;;;;;;;15.90;8.77;;;;;;;15.73;100.00;98899.97;4977052;28;20049;-82
2021/09/21 09:15:20;;;;;;;13.25;7.47;;;;;;;15.57;100.00;98898.81;5012593;28;20110;-83
2021/09/21 09:17:57;;;;;;;13.65;8.52;;;;;;;15.64;100.00;98912.00;5009996;28;20133;-82
2021/09/21 09:20:35;;;;;;;13.20;8.32;;;;;;;15.93;100.00;98907.56;4976346;28;20050;-81
2021/09/21 09:23:08;;;;;;;19.00;9.57;;;;;;;15.41;100.00;98908.50;5010394;28;20671;-81
2021/09/21 09:25:48;;;;;;;18.38;9.27;;;;;;;15.51;100.00;98897.34;4991006;28;20053;-81
2021/09/21 09:28:24;;;;;;;20.17;9.27;;;;;;;15.69;100.00;98901.72;4993613;28;20588;-81
2021/09/21 09:30:53;;;;;;;15.90;8.82;;;;;;;15.38;100.00;98907.22;5011327;28;20189;-81
2021/09/21 09:33:21;;;;;;;15.32;8.40;;;;;;;15.42;100.00;98902.75;4992088;28;20050;-81
2021/09/21 09:35:50;;;;;;;19.40;8.38;;;;;;;15.57;100.00;98896.88;4992722;28;20073;-83
2021/09/21 09:38:20;;;;;;;17.13;7.90;;;;;;;15.33;100.00;98901.09;4974942;28;20144;-82
2021/09/21 09:40:56;;;;;;;14.43;7.95;;;;;;;15.38;100.00;98904.47;5009854;28;20450;-81
2021/09/21 09:43:26;;;;;;;13.82;8.25;;;;;;;15.29;100.00;98914.56;4992777;28;20045;-81
2021/09/21 09:45:57;;;;;;;13.98;7.97;;;;;;;15.21;100.00;98911.78;4992886;28;20050;-81
2021/09/21 09:48:25;;;;;;;13.02;8.25;;;;;;;15.17;100.00;98902.63;4989246;28;20142;-79
2021/09/21 09:50:55;;;;;;;14.15;8.15;;;;;;;15.13;100.00;98901.63;4972263;28;20045;-81
2021/09/21 09:53:24;;;;;;;15.13;7.90;;;;;;;14.97;100.00;98899.31;4996302;28;20057;-82
2021/09/21 09:55:57;;;;;;;20.30;8.57;;;;;;;15.34;100.00;98900.78;5008163;28;20117;-83
2021/09/21 09:58:26;;;;;;;14.32;7.38;;;;;;;15.10;100.00;98905.78;4996945;28;20065;-82
2021/09/21 10:00:54;;;;;;;11.68;6.72;;;;;;;15.14;100.00;98912.25;5020361;28;20052;-82
2021/09/21 10:03:22;;;;;;;12.82;6.53;;;;;;;15.17;100.00;98908.91;4998036;28;20050;-81
2021/09/21 10:05:51;;;;;;;18.27;7.13;;;;;;;15.37;100.00;98900.16;4998345;28;20046;-81
2021/09/21 10:08:18;;;;;;;12.10;6.90;;;;;;;15.01;100.00;98907.69;4991279;28;20037;-81
2021/09/21 10:10:44;;;;;;;17.30;7.38;;;;;;;15.12;100.00;98905.50;5009465;28;20214;-81
2021/09/21 10:13:15;;;;;;;16.80;8.07;;;;;;;15.49;100.00;98905.84;4992039;28;20053;-79
2021/09/21 10:15:43;;;;;;;15.18;7.60;;;;;;;15.43;100.00;98903.56;5007917;28;20120;-79
2021/09/21 10:18:18;;;;;;;16.00;7.47;;;;;;;15.40;100.00;98905.00;5009875;28;20049;-82
2021/09/21 10:20:56;;;;;;;16.67;8.00;;;;;;;15.38;100.00;98909.16;5011248;28;20430;-81
2021/09/21 10:23:34;;;;;;;11.82;7.80;;;;;;;15.23;100.00;98901.34;4992236;28;20050;-81
2021/09/21 10:26:16;;;;;;;13.30;7.88;;;;;;;15.40;100.00;98913.19;5009745;28;20152;-81
2021/09/21 10:28:46;;;;;;;14.27;7.57;;;;;;;15.23;100.00;98896.72;4991975;28;20542;-81
2021/09/21 10:31:18;;;;;;;18.05;7.78;;;;;;;15.50;100.00;98901.19;4993244;28;20060;-82
2021/09/21 10:33:47;;;;;;;14.30;8.40;;;;;;;15.56;100.00;98905.41;5009011;28;20045;-81
2021/09/21 10:36:32;;;;;;;19.20;8.90;;;;;;;15.20;100.00;98910.19;4974659;28;20579;-81
2021/09/21 10:39:11;;;;;;;21.17;10.88;;;;;;;15.23;100.00;98906.81;5004786;28;20076;-79
2021/09/21 10:42:01;;;;;;;25.65;10.90;;;;;;;15.88;100.00;98896.00;5028884;28;20548;-82
2021/09/21 10:44:31;;;;;;;25.48;11.60;;;;;;;16.32;100.00;98889.44;5011189;28;20057;-81
2021/09/21 10:46:59;;;;;;;25.75;15.00;;;;;;;16.35;100.00;98899.75;5023078;28;20042;-81
2021/09/21 10:49:26;;;;;;;23.00;14.48;;;;;;;16.48;100.00;98898.78;4974394;28;20475;-80
2021/09/21 10:51:56;;;;;;;28.77;16.90;;;;;;;15.87;100.00;98903.38;4990488;28;20464;-80
2021/09/21 10:54:37;;;;;;;25.77;16.15;;;;;;;15.93;100.00;98899.38;4990929;28;20061;-81
2021/09/21 10:57:14;;;;;;;28.88;17.83;;;;;;;16.43;100.00;98902.47;4990181;28;20117;-81
2021/09/21 10:59:54;;;;;;;23.10;15.40;;;;;;;16.03;100.00;98906.47;5008619;28;20053;-81
2021/09/21 11:02:24;;;;;;;19.90;14.10;;;;;;;15.62;100.00;98895.13;4995123;28;20060;-82
2021/09/21 11:04:52;;;;;;;26.40;14.10;;;;;;;15.64;100.00;98904.59;5028936;28;20452;-81
2021/09/21 11:07:19;;;;;;;22.73;15.75;;;;;;;15.17;100.00;98911.63;4993286;28;20053;-81
2021/09/21 11:09:52;;;;;;;23.35;17.35;;;;;;;15.44;100.00;98910.59;5030571;28;20497;-79
2021/09/21 11:12:23;;;;;;;28.60;15.43;;;;;;;15.47;100.00;98901.81;5011324;28;20049;-82
2021/09/21 11:14:53;;;;;;;22.60;14.82;;;;;;;15.79;100.00;98898.72;5029377;28;20451;-81
2021/09/21 11:17:22;;;;;;;25.08;14.32;;;;;;;16.07;100.00;98900.06;4995178;28;20426;-81
2021/09/21 11:19:54;;;;;;;22.95;13.10;;;;;;;16.18;100.00;98906.81;5009813;28;20062;-82
2021/09/21 11:22:26;;;;;;;23.00;14.10;;;;;;;16.19;100.00;98897.50;5010091;28;20227;-81
2021/09/21 11:25:00;;;;;;;23.73;14.02;;;;;;;16.50;100.00;98899.25;5008544;28;20105;-80
2021/09/21 11:27:27;;;;;;;21.52;14.93;;;;;;;16.63;100.00;98901.03;4981776;28;20600;-80
2021/09/21 11:30:10;;;;;;;19.95;13.35;;;;;;;16.30;100.00;98908.09;5030206;28;20042;-81
2021/09/21 11:32:37;;;;;;;20.17;14.98;;;;;;;16.07;100.00;98908.25;5031472;28;20045;-81